Trans Sea — 9HA2564 — position and weather

sailwx.info

Track history (hours):
 
Tides and Currents Weather Stations Pressure Air Temp Water Temp Dewpoint Dewpoint Depression Visibility Wind Speed Wind Dir Waves Ship Positions

Trans Sea

Last reported at 2014-Oct-23 03:12 UTC. Time now 2014-Oct-23 05:23 UTC.
Position N 39°34' W 009°42'.

Length 107 m; draft 5.2 m.

Type: Ship. MMSI: 248887000.

Date/timePositionNaut miles runAvg speedWind from/ knotsBaromVisibWave heightAir tempDewpointWater temp
2014-Oct-23 03:12N 39°34' W 009°42'2413.3
2014-Oct-23 01:25N 39°10' W 009°47'1113.1
2014-Oct-23 00:33N 38°59' W 009°49'1313.2
2014-Oct-22 23:32N 38°46' W 009°49'1212.4
2014-Oct-22 22:33N 38°33' W 009°47'1412.9
2014-Oct-22 21:29N 38°20' W 009°44'1513.1
2014-Oct-22 20:21N 38°05' W 009°40'1013.0
2014-Oct-22 19:33N 37°55' W 009°37'1412.8
2014-Oct-22 18:28N 37°42' W 009°34'1212.6
2014-Oct-22 17:33N 37°30' W 009°31'1312.9
2014-Oct-22 16:33N 37°18' W 009°27'1312.8
2014-Oct-22 15:33N 37°05' W 009°23'1212.5
2014-Oct-22 14:33N 36°53' W 009°19'6312.5
2014-Oct-22 09:33N 36°29' W 008°07'12912.9
2014-Oct-21 23:33N 35°59' W 005°32'1212.0
2014-Oct-21 22:34N 36°02' W 005°18'25513.3
2014-Oct-21 03:25N 36°51' W 000°07'1213.7
2014-Oct-21 02:34N 36°54' E 000°07'1413.8
2014-Oct-21 01:33N 36°57' E 000°24'1413.7
2014-Oct-21 00:32N 37°01' E 000°41'1313.8
2014-Oct-20 23:33N 37°04' E 000°58'1413.6
2014-Oct-20 22:32N 37°07' E 001°14'1313.6
2014-Oct-20 21:33N 37°10' E 001°31'15313.7
2014-Oct-20 10:24N 37°39' E 004°40'14713.6
2014-Oct-19 23:32N 37°39' E 007°47'1813.6
2014-Oct-19 22:12N 37°40' E 008°09'1114.0
2014-Oct-19 21:26N 37°39' E 008°23'3013.5
2014-Oct-19 19:15N 37°39' E 009°00'6113.0
2014-Oct-19 14:33N 37°39' E 010°18'16113.4
2014-Oct-19 02:32N 37°02' E 013°35'1313.2
2014-Oct-19 01:33N 36°56' E 013°49'1313.1
2014-Oct-19 00:33N 36°50' E 014°03'1312.9
2014-Oct-18 23:33N 36°43' E 014°17'1312.7
2014-Oct-18 22:33N 36°39' E 014°32'44113.3
2014-Oct-17 13:31N 35°45' E 023°34'1212.8
2014-Oct-17 12:33N 35°45' E 023°49'1312.6
2014-Oct-17 11:33N 35°44' E 024°05'1312.8
2014-Oct-17 10:33N 35°42' E 024°20'1312.6
2014-Oct-17 09:33N 35°39' E 024°36'1312.9
2014-Oct-17 08:33N 35°37' E 024°51'1312.9
2014-Oct-17 07:33N 35°36' E 025°07'1312.7
2014-Oct-17 06:33N 35°33' E 025°22'1412.9
2014-Oct-17 05:29N 35°31' E 025°39'2612.9
2014-Oct-17 03:28N 35°27' E 026°10'2713.1
2014-Oct-17 01:26N 35°19' E 026°41'1213.7
2014-Oct-17 00:33N 35°16' E 026°56'1414.0
2014-Oct-16 23:32N 35°17' E 027°13'3114.0
2014-Oct-16 21:20N 35°20' E 027°51'  
Track history (hours):
 
Tides and Currents Weather Stations Pressure Air Temp Water Temp Dewpoint Dewpoint Depression Visibility Wind Speed Wind Dir Waves Ship Positions

Trans Sea

Last reported at 2014-Oct-23 03:12 UTC. Time now 2014-Oct-23 05:23 UTC.
Position N 39°34' W 009°42'.

Length 107 m; draft 5.2 m.

Type: Ship. MMSI: 248887000.

Date/timePositionNaut miles runAvg speedWind from/ knotsBaromVisibWave heightAir tempDewpointWater temp
2014-Oct-23 03:12N 39°34' W 009°42'2413.3
2014-Oct-23 01:25N 39°10' W 009°47'1113.1
2014-Oct-23 00:33N 38°59' W 009°49'1313.2
2014-Oct-22 23:32N 38°46' W 009°49'1212.4
2014-Oct-22 22:33N 38°33' W 009°47'1412.9
2014-Oct-22 21:29N 38°20' W 009°44'1513.1
2014-Oct-22 20:21N 38°05' W 009°40'1013.0
2014-Oct-22 19:33N 37°55' W 009°37'1412.8
2014-Oct-22 18:28N 37°42' W 009°34'1212.6
2014-Oct-22 17:33N 37°30' W 009°31'1312.9
2014-Oct-22 16:33N 37°18' W 009°27'1312.8
2014-Oct-22 15:33N 37°05' W 009°23'1212.5
2014-Oct-22 14:33N 36°53' W 009°19'6312.5
2014-Oct-22 09:33N 36°29' W 008°07'12912.9
2014-Oct-21 23:33N 35°59' W 005°32'1212.0
2014-Oct-21 22:34N 36°02' W 005°18'25513.3
2014-Oct-21 03:25N 36°51' W 000°07'1213.7
2014-Oct-21 02:34N 36°54' E 000°07'1413.8
2014-Oct-21 01:33N 36°57' E 000°24'1413.7
2014-Oct-21 00:32N 37°01' E 000°41'1313.8
2014-Oct-20 23:33N 37°04' E 000°58'1413.6
2014-Oct-20 22:32N 37°07' E 001°14'1313.6
2014-Oct-20 21:33N 37°10' E 001°31'15313.7
2014-Oct-20 10:24N 37°39' E 004°40'14713.6
2014-Oct-19 23:32N 37°39' E 007°47'1813.6
2014-Oct-19 22:12N 37°40' E 008°09'1114.0
2014-Oct-19 21:26N 37°39' E 008°23'3013.5
2014-Oct-19 19:15N 37°39' E 009°00'6113.0
2014-Oct-19 14:33N 37°39' E 010°18'16113.4
2014-Oct-19 02:32N 37°02' E 013°35'1313.2
2014-Oct-19 01:33N 36°56' E 013°49'1313.1
2014-Oct-19 00:33N 36°50' E 014°03'1312.9
2014-Oct-18 23:33N 36°43' E 014°17'1312.7
2014-Oct-18 22:33N 36°39' E 014°32'44113.3
2014-Oct-17 13:31N 35°45' E 023°34'1212.8
2014-Oct-17 12:33N 35°45' E 023°49'1312.6
2014-Oct-17 11:33N 35°44' E 024°05'1312.8
2014-Oct-17 10:33N 35°42' E 024°20'1312.6
2014-Oct-17 09:33N 35°39' E 024°36'1312.9
2014-Oct-17 08:33N 35°37' E 024°51'1312.9
2014-Oct-17 07:33N 35°36' E 025°07'1312.7
2014-Oct-17 06:33N 35°33' E 025°22'1412.9
2014-Oct-17 05:29N 35°31' E 025°39'2612.9
2014-Oct-17 03:28N 35°27' E 026°10'2713.1
2014-Oct-17 01:26N 35°19' E 026°41'1213.7
2014-Oct-17 00:33N 35°16' E 026°56'1414.0
2014-Oct-16 23:32N 35°17' E 027°13'3114.0
2014-Oct-16 21:20N 35°20' E 027°51'  

Dump ship's entire track history